Time;durP1;ratioP1;P1;durP2;ratioP2;P2;SDS_P1;SDS_P2;PMS_P1;PMS_P2;Temp;Humidity;BMP_temperature;BMP_pressure;BME280_temperature;BME280_humidity;BME280_pressure;Samples;Min_cycle;Max_cycle;Signal;HPM_P1;HPM_P2
2021/08/07 00:01:41;;;;;;;5.40;4.67;;;;;;;;;;726687;192;920452;-69
2021/08/07 00:04:07;;;;;;;7.95;4.00;;;;;;;;;;725252;192;918624;-68
2021/08/07 00:06:33;;;;;;;4.60;4.03;;;;;;;;;;730804;191;919436;-68
2021/08/07 00:08:59;;;;;;;5.27;4.37;;;;;;;;;;726167;191;919402;-69
2021/08/07 00:11:25;;;;;;;4.90;3.97;;;;;;;;;;727344;191;1021318;-69
2021/08/07 00:13:51;;;;;;;6.73;3.70;;;;;;;;;;731330;191;918190;-69
2021/08/07 00:16:16;;;;;;;5.60;3.10;;;;;;;;;;724790;192;917925;-69
2021/08/07 00:18:43;;;;;;;4.20;3.30;;;;;;;;;;727876;191;918972;-69
2021/08/07 00:21:08;;;;;;;4.67;3.47;;;;;;;;;;732399;190;919330;-69
2021/08/07 00:23:34;;;;;;;6.10;3.80;;;;;;;;;;727277;191;919409;-69
2021/08/07 00:26:00;;;;;;;7.03;4.17;;;;;;;;;;726948;191;919501;-68
2021/08/07 00:28:26;;;;;;;5.23;3.90;;;;;;;;;;724105;192;919176;-68
2021/08/07 00:30:51;;;;;;;8.23;4.00;;;;;;;;;;730495;191;919597;-69
2021/08/07 00:33:17;;;;;;;4.63;4.17;;;;;;;;;;727058;192;919359;-69
2021/08/07 00:35:46;;;;;;;4.20;3.70;;;;;;;;;;726293;192;919055;-69
2021/08/07 00:38:09;;;;;;;7.60;3.93;;;;;;;;;;730161;193;919355;-68
2021/08/07 00:40:35;;;;;;;4.80;4.10;;;;;;;;;;726842;191;919613;-69
2021/08/07 00:43:01;;;;;;;7.33;3.40;;;;;;;;;;726239;192;1021380;-68
2021/08/07 00:45:26;;;;;;;6.80;3.33;;;;;;;;;;732122;192;919925;-70
2021/08/07 00:47:52;;;;;;;5.37;3.37;;;;;;;;;;724775;191;919587;-69
2021/08/07 00:50:18;;;;;;;5.53;3.55;;;;;;;;;;725620;190;1078312;-69
2021/08/07 00:52:44;;;;;;;10.43;3.60;;;;;;;;;;726487;192;919550;-69
2021/08/07 00:55:10;;;;;;;7.50;4.03;;;;;;;;;;735476;189;919149;-69
2021/08/07 00:57:36;;;;;;;5.87;3.67;;;;;;;;;;727285;190;1021586;-69
2021/08/07 01:00:02;;;;;;;5.80;3.97;;;;;;;;;;727560;192;920821;-69
2021/08/07 01:02:28;;;;;;;5.47;3.43;;;;;;;;;;731367;191;928380;-69
2021/08/07 01:04:54;;;;;;;9.53;3.60;;;;;;;;;;726070;192;920749;-69
2021/08/07 01:07:34;;;;;;;8.23;3.73;;;;;;;;;;724693;192;918753;-69
2021/08/07 01:10:02;;;;;;;4.18;3.15;;;;;;;;;;725991;192;919126;-69
2021/08/07 01:12:28;;;;;;;6.70;3.47;;;;;;;;;;732905;192;918820;-69
2021/08/07 01:14:54;;;;;;;9.23;3.40;;;;;;;;;;725315;191;919745;-69
2021/08/07 01:17:22;;;;;;;8.67;4.50;;;;;;;;;;725758;192;919423;-69
2021/08/07 01:19:47;;;;;;;4.23;2.90;;;;;;;;;;725724;192;919543;-69
2021/08/07 01:22:13;;;;;;;22.13;3.47;;;;;;;;;;732241;191;918584;-69
2021/08/07 01:24:41;;;;;;;3.83;3.10;;;;;;;;;;727727;191;919843;-69
2021/08/07 01:27:10;;;;;;;8.20;2.90;;;;;;;;;;727779;191;919704;-71
2021/08/07 01:29:36;;;;;;;6.53;3.07;;;;;;;;;;731644;191;918831;-69
2021/08/07 01:32:02;;;;;;;7.75;3.47;;;;;;;;;;726447;190;1020925;-69
2021/08/07 01:34:28;;;;;;;5.95;3.70;;;;;;;;;;726386;191;919620;-70
2021/08/07 01:36:54;;;;;;;5.10;3.10;;;;;;;;;;727076;191;919375;-69
2021/08/07 01:39:20;;;;;;;6.67;3.33;;;;;;;;;;726764;193;919708;-69
2021/08/07 01:41:46;;;;;;;5.07;3.50;;;;;;;;;;725510;192;919619;-70
2021/08/07 01:44:12;;;;;;;10.37;3.77;;;;;;;;;;726124;193;919203;-69
2021/08/07 01:46:52;;;;;;;8.73;3.67;;;;;;;;;;730468;192;919117;-69
2021/08/07 01:49:19;;;;;;;6.80;3.30;;;;;;;;;;729980;192;919420;-69
2021/08/07 01:51:45;;;;;;;6.67;3.70;;;;;;;;;;725135;193;919477;-68
2021/08/07 01:54:11;;;;;;;14.57;4.30;;;;;;;;;;725838;192;1020982;-69
2021/08/07 01:56:37;;;;;;;4.83;3.83;;;;;;;;;;731346;192;919641;-69
2021/08/07 01:59:02;;;;;;;8.37;3.33;;;;;;;;;;725267;192;922409;-69
2021/08/07 02:01:28;;;;;;;4.83;3.50;;;;;;;;;;726944;192;918907;-68
2021/08/07 02:03:54;;;;;;;5.00;3.03;;;;;;;;;;731827;191;919524;-68
2021/08/07 02:06:20;;;;;;;5.70;3.83;;;;;;;;;;727232;191;918995;-69
2021/08/07 02:08:46;;;;;;;4.53;3.50;;;;;;;;;;727437;191;919522;-68
2021/08/07 02:11:11;;;;;;;5.73;4.20;;;;;;;;;;728262;192;918609;-67
2021/08/07 02:13:37;;;;;;;5.87;4.12;;;;;;;;;;732177;191;919644;-68
2021/08/07 02:16:04;;;;;;;5.17;3.50;;;;;;;;;;726897;192;919786;-68
2021/08/07 02:18:29;;;;;;;5.60;4.17;;;;;;;;;;728688;191;920055;-69
2021/08/07 02:20:55;;;;;;;8.07;4.70;;;;;;;;;;731694;190;920658;-68
2021/08/07 02:23:21;;;;;;;6.90;4.60;;;;;;;;;;727157;191;917738;-68
2021/08/07 02:25:47;;;;;;;8.33;4.67;;;;;;;;;;725992;190;916829;-68
2021/08/07 02:28:13;;;;;;;7.87;4.77;;;;;;;;;;732500;192;918925;-69
2021/08/07 02:30:46;;;;;;;7.47;5.83;;;;;;;;;;788577;170;918928;-68
2021/08/07 02:33:12;;;;;;;8.23;6.00;;;;;;;;;;763370;180;920135;-68
2021/08/07 02:35:38;;;;;;;6.20;4.80;;;;;;;;;;772089;180;919303;-68
2021/08/07 02:38:03;;;;;;;7.93;4.25;;;;;;;;;;775126;179;919818;-67
2021/08/07 02:40:29;;;;;;;8.70;5.37;;;;;;;;;;773330;180;920516;-67
2021/08/07 02:42:55;;;;;;;7.97;4.97;;;;;;;;;;770315;180;920058;-68
2021/08/07 02:45:21;;;;;;;6.00;4.60;;;;;;;;;;770168;181;918905;-69
2021/08/07 02:47:47;;;;;;;5.53;4.67;;;;;;;;;;770929;180;920450;-68
2021/08/07 02:50:13;;;;;;;10.70;4.73;;;;;;;;;;765920;180;918991;-68
2021/08/07 02:52:38;;;;;;;6.33;5.23;;;;;;;;;;767513;180;920275;-67
2021/08/07 02:55:05;;;;;;;5.97;4.40;;;;;;;;;;775387;179;918665;-68
2021/08/07 02:57:30;;;;;;;6.27;4.37;;;;;;;;;;764118;180;919607;-68
2021/08/07 02:59:56;;;;;;;5.40;3.57;;;;;;;;;;769788;180;919213;-68
2021/08/07 03:02:22;;;;;;;10.03;4.33;;;;;;;;;;776185;180;918668;-69
2021/08/07 03:04:49;;;;;;;6.03;4.70;;;;;;;;;;765853;180;919749;-68
2021/08/07 03:07:14;;;;;;;7.53;4.13;;;;;;;;;;765907;180;919028;-68
2021/08/07 03:09:41;;;;;;;6.43;4.07;;;;;;;;;;775241;180;919348;-68
2021/08/07 03:12:07;;;;;;;5.17;4.27;;;;;;;;;;769174;180;1049352;-70
2021/08/07 03:14:33;;;;;;;5.70;3.87;;;;;;;;;;770668;180;919727;-67
2021/08/07 03:16:58;;;;;;;5.43;4.03;;;;;;;;;;768857;180;935561;-67
2021/08/07 03:19:24;;;;;;;5.40;3.93;;;;;;;;;;771485;180;919277;-68
2021/08/07 03:21:50;;;;;;;7.13;4.03;;;;;;;;;;766001;180;918944;-68
2021/08/07 03:24:16;;;;;;;11.43;4.13;;;;;;;;;;770856;181;921882;-68
2021/08/07 03:26:42;;;;;;;5.53;4.40;;;;;;;;;;768947;180;919365;-69
2021/08/07 03:29:08;;;;;;;5.33;3.47;;;;;;;;;;765427;180;924150;-68
2021/08/07 03:31:33;;;;;;;4.93;3.60;;;;;;;;;;767852;180;918362;-68
2021/08/07 03:33:59;;;;;;;9.93;3.50;;;;;;;;;;772368;180;918461;-69
2021/08/07 03:36:25;;;;;;;8.10;4.60;;;;;;;;;;765751;179;919564;-69
2021/08/07 03:38:51;;;;;;;8.83;4.83;;;;;;;;;;769417;180;919432;-67
2021/08/07 03:41:17;;;;;;;6.80;4.30;;;;;;;;;;768232;180;920391;-67
2021/08/07 03:43:43;;;;;;;5.83;4.50;;;;;;;;;;766580;183;924682;-67
2021/08/07 03:46:08;;;;;;;7.50;4.17;;;;;;;;;;771416;180;919259;-67
2021/08/07 03:48:34;;;;;;;5.47;4.43;;;;;;;;;;768539;180;1003600;-67
2021/08/07 03:51:00;;;;;;;5.50;4.30;;;;;;;;;;775664;180;915373;-67
2021/08/07 03:53:26;;;;;;;17.27;6.37;;;;;;;;;;773304;180;916953;-67
2021/08/07 03:55:52;;;;;;;10.55;4.22;;;;;;;;;;772172;179;919529;-67
2021/08/07 03:58:18;;;;;;;5.87;4.30;;;;;;;;;;771416;181;919648;-67
2021/08/07 04:00:43;;;;;;;5.60;4.17;;;;;;;;;;765947;180;919211;-67
2021/08/07 04:03:09;;;;;;;5.35;3.60;;;;;;;;;;769233;181;919608;-67
2021/08/07 04:05:35;;;;;;;5.57;4.27;;;;;;;;;;772102;180;918038;-67
2021/08/07 04:08:01;;;;;;;5.97;4.73;;;;;;;;;;768997;180;919752;-67
2021/08/07 04:10:27;;;;;;;7.80;4.80;;;;;;;;;;766889;181;919274;-69
2021/08/07 04:12:53;;;;;;;7.90;4.07;;;;;;;;;;765835;180;927105;-68
2021/08/07 04:15:18;;;;;;;8.67;4.80;;;;;;;;;;771337;180;920982;-69
2021/08/07 04:17:44;;;;;;;8.53;5.80;;;;;;;;;;768391;180;919521;-68
2021/08/07 04:20:10;;;;;;;12.80;5.00;;;;;;;;;;771434;180;919167;-69
2021/08/07 04:22:36;;;;;;;8.20;5.70;;;;;;;;;;774497;180;930562;-68
2021/08/07 04:25:02;;;;;;;9.70;6.23;;;;;;;;;;765919;180;1022091;-68
2021/08/07 04:27:28;;;;;;;8.07;6.60;;;;;;;;;;765579;180;922563;-68
2021/08/07 04:29:54;;;;;;;9.40;7.87;;;;;;;;;;773567;179;916610;-68
2021/08/07 04:32:20;;;;;;;11.20;8.40;;;;;;;;;;767542;180;918162;-68
2021/08/07 04:34:45;;;;;;;16.80;8.57;;;;;;;;;;768335;180;923155;-68
2021/08/07 04:37:11;;;;;;;17.20;9.47;;;;;;;;;;768031;180;917839;-67
2021/08/07 04:39:37;;;;;;;21.20;10.00;;;;;;;;;;763002;181;915989;-68
2021/08/07 04:42:03;;;;;;;15.37;9.63;;;;;;;;;;761116;181;916626;-68
2021/08/07 04:44:29;;;;;;;14.83;10.03;;;;;;;;;;769068;181;919331;-68
2021/08/07 04:46:55;;;;;;;18.20;11.80;;;;;;;;;;774040;180;919764;-69
2021/08/07 04:49:20;;;;;;;24.17;10.53;;;;;;;;;;770725;179;919955;-69
2021/08/07 04:51:46;;;;;;;14.95;10.80;;;;;;;;;;773287;179;919662;-69
2021/08/07 04:54:12;;;;;;;18.80;9.50;;;;;;;;;;775960;179;918022;-69
2021/08/07 04:56:38;;;;;;;18.70;10.90;;;;;;;;;;769486;180;919536;-69
2021/08/07 04:59:04;;;;;;;14.17;10.40;;;;;;;;;;773248;179;920471;-69
2021/08/07 05:01:30;;;;;;;18.50;10.30;;;;;;;;;;775319;180;920007;-68
2021/08/07 05:03:56;;;;;;;12.20;10.67;;;;;;;;;;767299;180;1036247;-69
2021/08/07 05:06:22;;;;;;;14.07;10.40;;;;;;;;;;768440;180;919027;-69
2021/08/07 05:08:47;;;;;;;17.67;10.57;;;;;;;;;;770259;180;919642;-68
2021/08/07 05:11:13;;;;;;;15.43;9.90;;;;;;;;;;773652;180;919263;-69
2021/08/07 05:13:39;;;;;;;13.37;10.10;;;;;;;;;;768752;180;922926;-70
2021/08/07 05:16:05;;;;;;;12.70;9.63;;;;;;;;;;771257;180;923566;-69
2021/08/07 05:18:31;;;;;;;12.87;8.60;;;;;;;;;;775316;180;937588;-71
2021/08/07 05:20:57;;;;;;;13.50;10.53;;;;;;;;;;771840;179;919229;-69
2021/08/07 05:23:22;;;;;;;12.20;9.53;;;;;;;;;;771034;179;920404;-72
2021/08/07 05:25:48;;;;;;;11.13;9.00;;;;;;;;;;764950;182;1028578;-70
2021/08/07 05:28:14;;;;;;;9.93;8.03;;;;;;;;;;761667;182;918529;-70
2021/08/07 05:30:40;;;;;;;12.53;8.20;;;;;;;;;;756122;183;919280;-72
2021/08/07 05:33:06;;;;;;;15.68;10.18;;;;;;;;;;764664;180;921424;-69
2021/08/07 05:35:32;;;;;;;11.17;8.13;;;;;;;;;;763210;182;919940;-69
2021/08/07 05:37:57;;;;;;;10.43;8.40;;;;;;;;;;756989;183;920149;-70
2021/08/07 05:40:23;;;;;;;8.77;7.80;;;;;;;;;;767079;180;917813;-70
2021/08/07 05:42:49;;;;;;;11.97;8.47;;;;;;;;;;770609;180;928718;-69
2021/08/07 05:45:15;;;;;;;11.67;7.80;;;;;;;;;;770072;180;917597;-70
2021/08/07 05:47:41;;;;;;;14.67;8.13;;;;;;;;;;768076;180;916012;-70
2021/08/07 05:50:07;;;;;;;8.03;7.23;;;;;;;;;;771593;179;920796;-70
2021/08/07 05:52:33;;;;;;;11.57;7.70;;;;;;;;;;766648;180;919279;-70
2021/08/07 05:54:59;;;;;;;10.47;7.30;;;;;;;;;;770390;180;919245;-70
2021/08/07 05:57:26;;;;;;;8.13;5.97;;;;;;;;;;772152;180;914818;-69
2021/08/07 05:59:51;;;;;;;12.43;6.77;;;;;;;;;;773044;180;915572;-71
2021/08/07 06:02:17;;;;;;;10.60;5.90;;;;;;;;;;768422;180;915749;-71
2021/08/07 06:04:43;;;;;;;6.47;4.97;;;;;;;;;;768630;180;916278;-70
2021/08/07 06:07:09;;;;;;;9.53;5.30;;;;;;;;;;774222;180;915826;-70
2021/08/07 06:09:35;;;;;;;5.87;4.70;;;;;;;;;;771288;180;1120139;-70
2021/08/07 06:12:01;;;;;;;9.23;5.37;;;;;;;;;;768015;180;916074;-69
2021/08/07 06:14:26;;;;;;;7.30;4.83;;;;;;;;;;777606;179;915618;-70
2021/08/07 06:16:52;;;;;;;6.60;4.40;;;;;;;;;;765531;180;1020769;-69
2021/08/07 06:19:18;;;;;;;5.10;4.20;;;;;;;;;;769660;180;919514;-70
2021/08/07 06:21:44;;;;;;;6.28;4.00;;;;;;;;;;776185;179;915864;-69
2021/08/07 06:24:10;;;;;;;6.20;3.63;;;;;;;;;;766426;180;914000;-69
2021/08/07 06:26:36;;;;;;;5.30;3.90;;;;;;;;;;770939;180;919734;-69
2021/08/07 06:29:01;;;;;;;7.13;3.60;;;;;;;;;;765597;181;919564;-68
2021/08/07 06:31:27;;;;;;;10.23;3.17;;;;;;;;;;775727;180;919337;-70
2021/08/07 06:33:54;;;;;;;8.83;4.20;;;;;;;;;;772297;179;919653;-70
2021/08/07 06:36:19;;;;;;;4.90;2.90;;;;;;;;;;766777;180;919709;-69
2021/08/07 06:38:45;;;;;;;5.77;3.07;;;;;;;;;;777140;180;910889;-70
2021/08/07 06:41:11;;;;;;;3.97;2.57;;;;;;;;;;765225;180;919440;-69
2021/08/07 06:43:36;;;;;;;7.00;2.63;;;;;;;;;;763734;180;919285;-68
2021/08/07 06:46:02;;;;;;;4.53;2.70;;;;;;;;;;776386;180;918614;-68
2021/08/07 06:48:28;;;;;;;4.60;2.97;;;;;;;;;;771282;180;918945;-69
2021/08/07 06:50:54;;;;;;;4.95;2.78;;;;;;;;;;768822;180;918911;-69
2021/08/07 06:53:21;;;;;;;3.30;2.20;;;;;;;;;;766691;180;919272;-68
2021/08/07 06:55:47;;;;;;;3.20;2.30;;;;;;;;;;768563;181;919487;-69
2021/08/07 06:58:12;;;;;;;2.90;2.00;;;;;;;;;;760548;180;919123;-69
2021/08/07 07:00:39;;;;;;;4.20;2.50;;;;;;;;;;767173;181;919440;-68
2021/08/07 07:03:04;;;;;;;2.80;2.07;;;;;;;;;;774164;180;920057;-69
2021/08/07 07:05:32;;;;;;;7.17;2.97;;;;;;;;;;772386;180;920951;-68
2021/08/07 07:07:56;;;;;;;4.60;2.37;;;;;;;;;;764498;180;920670;-68
2021/08/07 07:10:22;;;;;;;3.33;2.00;;;;;;;;;;770207;180;919498;-68
2021/08/07 07:12:47;;;;;;;3.73;3.03;;;;;;;;;;766799;180;904788;-68
2021/08/07 07:15:14;;;;;;;3.30;2.12;;;;;;;;;;768250;179;919946;-69
2021/08/07 07:17:40;;;;;;;6.22;2.10;;;;;;;;;;775168;180;919080;-67
2021/08/07 07:20:06;;;;;;;3.20;1.97;;;;;;;;;;776747;178;921179;-69
2021/08/07 07:22:32;;;;;;;6.13;2.40;;;;;;;;;;768714;180;921380;-68
2021/08/07 07:24:58;;;;;;;5.63;2.73;;;;;;;;;;767475;180;1021125;-68
2021/08/07 07:27:23;;;;;;;2.47;1.73;;;;;;;;;;776041;180;879284;-68
2021/08/07 07:29:49;;;;;;;3.23;1.97;;;;;;;;;;771599;180;919224;-68
2021/08/07 07:32:15;;;;;;;4.47;2.07;;;;;;;;;;768582;180;928513;-70
2021/08/07 07:34:41;;;;;;;3.80;2.10;;;;;;;;;;774713;180;919698;-68
2021/08/07 07:37:07;;;;;;;5.30;2.30;;;;;;;;;;770708;180;919009;-68
2021/08/07 07:39:33;;;;;;;3.07;2.10;;;;;;;;;;771942;180;919285;-68
2021/08/07 07:41:58;;;;;;;4.20;1.97;;;;;;;;;;773711;180;920885;-67
2021/08/07 07:44:24;;;;;;;3.40;2.00;;;;;;;;;;765793;180;919284;-68
2021/08/07 07:46:50;;;;;;;3.13;2.17;;;;;;;;;;769863;180;919595;-68
2021/08/07 07:49:16;;;;;;;5.00;1.87;;;;;;;;;;770305;180;919359;-68
2021/08/07 07:51:42;;;;;;;4.27;2.07;;;;;;;;;;775987;179;927174;-68
2021/08/07 07:54:08;;;;;;;3.73;1.83;;;;;;;;;;769771;179;919059;-67
2021/08/07 07:56:34;;;;;;;3.33;2.13;;;;;;;;;;764850;182;920613;-68
2021/08/07 07:59:00;;;;;;;2.90;1.83;;;;;;;;;;775740;180;919568;-69
2021/08/07 08:01:25;;;;;;;3.43;2.30;;;;;;;;;;771435;180;919234;-67
2021/08/07 08:03:51;;;;;;;5.00;2.20;;;;;;;;;;766061;180;925889;-68
2021/08/07 08:06:17;;;;;;;2.40;1.80;;;;;;;;;;772258;180;919714;-67
2021/08/07 08:08:43;;;;;;;5.10;2.40;;;;;;;;;;767338;180;939628;-68
2021/08/07 08:11:09;;;;;;;3.23;2.20;;;;;;;;;;768309;180;920625;-67
2021/08/07 08:13:35;;;;;;;4.23;2.00;;;;;;;;;;770647;180;930461;-68
2021/08/07 08:16:00;;;;;;;3.70;2.13;;;;;;;;;;772541;180;918506;-68
2021/08/07 08:18:26;;;;;;;4.93;2.20;;;;;;;;;;767099;180;919109;-68
2021/08/07 08:20:52;;;;;;;4.23;2.10;;;;;;;;;;766672;180;919953;-69
2021/08/07 08:23:18;;;;;;;2.37;1.57;;;;;;;;;;775228;180;877039;-68
2021/08/07 08:25:45;;;;;;;5.17;1.90;;;;;;;;;;767715;180;918953;-69
2021/08/07 08:28:10;;;;;;;7.13;1.80;;;;;;;;;;772417;179;922361;-67
2021/08/07 08:30:35;;;;;;;3.70;1.80;;;;;;;;;;773613;180;917019;-68
2021/08/07 08:33:01;;;;;;;4.50;2.23;;;;;;;;;;762853;180;1221693;-68
2021/08/07 08:35:27;;;;;;;4.50;2.60;;;;;;;;;;767464;180;919552;-68
2021/08/07 08:37:53;;;;;;;4.53;2.07;;;;;;;;;;769841;180;919581;-68
2021/08/07 08:40:19;;;;;;;3.70;1.87;;;;;;;;;;771876;180;930298;-68
2021/08/07 08:42:45;;;;;;;3.60;2.20;;;;;;;;;;763246;181;919451;-68
2021/08/07 08:45:11;;;;;;;3.83;2.37;;;;;;;;;;766241;181;918860;-68
2021/08/07 08:47:37;;;;;;;3.63;2.13;;;;;;;;;;774019;180;918510;-67
2021/08/07 08:50:02;;;;;;;3.00;2.03;;;;;;;;;;768774;180;919798;-68
2021/08/07 08:52:29;;;;;;;6.12;3.33;;;;;;;;;;767779;180;919433;-68
2021/08/07 08:54:55;;;;;;;3.57;1.60;;;;;;;;;;775175;180;919850;-68
2021/08/07 08:57:21;;;;;;;4.60;3.33;;;;;;;;;;771739;179;919366;-68
2021/08/07 08:59:47;;;;;;;3.93;1.80;;;;;;;;;;765791;181;920497;-67
2021/08/07 09:02:13;;;;;;;4.20;1.85;;;;;;;;;;775085;180;919376;-67
2021/08/07 09:04:39;;;;;;;4.00;1.97;;;;;;;;;;770457;181;919080;-67
2021/08/07 09:07:05;;;;;;;3.03;1.93;;;;;;;;;;760356;181;919339;-67
2021/08/07 09:09:37;;;;;;;4.47;2.00;;;;;;;;;;767118;181;920024;-68
2021/08/07 09:12:03;;;;;;;3.20;2.10;;;;;;;;;;774143;180;923346;-68
2021/08/07 09:14:29;;;;;;;4.73;1.70;;;;;;;;;;772959;180;918976;-68
2021/08/07 09:17:07;;;;;;;2.30;1.50;;;;;;;;;;775509;180;618705;-67
2021/08/07 09:19:54;;;;;;;3.40;1.97;;;;;;;;;;776050;179;634047;-68
2021/08/07 09:22:21;;;;;;;2.58;1.80;;;;;;;;;;775534;180;923309;-69
2021/08/07 09:24:53;;;;;;;3.80;1.80;;;;;;;;;;771216;180;631659;-67
2021/08/07 09:27:19;;;;;;;3.60;2.13;;;;;;;;;;777033;181;630611;-67
2021/08/07 09:29:44;;;;;;;3.90;2.03;;;;;;;;;;770678;180;619679;-68
2021/08/07 09:32:10;;;;;;;5.70;1.70;;;;;;;;;;767992;181;639007;-68
2021/08/07 09:34:36;;;;;;;4.20;1.90;;;;;;;;;;776214;180;918947;-66
2021/08/07 09:37:02;;;;;;;6.40;2.27;;;;;;;;;;768837;179;921333;-67
2021/08/07 09:39:34;;;;;;;3.13;1.60;;;;;;;;;;770721;178;920271;-68
2021/08/07 09:42:00;;;;;;;4.10;1.43;;;;;;;;;;769184;179;919472;-68
2021/08/07 09:44:25;;;;;;;8.97;4.23;;;;;;;;;;774379;180;1113190;-67
2021/08/07 09:46:51;;;;;;;2.70;1.83;;;;;;;;;;772301;180;919713;-68
2021/08/07 09:49:17;;;;;;;5.53;1.60;;;;;;;;;;765732;180;919153;-67
2021/08/07 09:51:43;;;;;;;2.03;1.20;;;;;;;;;;769609;180;919051;-66
2021/08/07 09:54:12;;;;;;;4.47;1.37;;;;;;;;;;770504;181;917268;-67
2021/08/07 09:56:44;;;;;;;2.20;1.57;;;;;;;;;;770704;180;919463;-67
2021/08/07 09:59:10;;;;;;;3.50;1.70;;;;;;;;;;768600;180;919383;-66
2021/08/07 10:01:36;;;;;;;8.27;2.70;;;;;;;;;;773908;180;919899;-67
2021/08/07 10:04:03;;;;;;;3.33;1.70;;;;;;;;;;768246;180;919375;-67
2021/08/07 10:06:28;;;;;;;4.30;1.93;;;;;;;;;;766467;180;919608;-66
2021/08/07 10:08:54;;;;;;;3.60;1.30;;;;;;;;;;774688;180;917919;-66
2021/08/07 10:11:20;;;;;;;3.07;1.40;;;;;;;;;;770418;180;919992;-69
2021/08/07 10:13:46;;;;;;;2.60;1.40;;;;;;;;;;768395;180;916160;-67
2021/08/07 10:16:12;;;;;;;2.80;1.40;;;;;;;;;;766778;180;916419;-67
2021/08/07 10:18:38;;;;;;;3.60;1.77;;;;;;;;;;776633;180;916966;-66
2021/08/07 10:21:03;;;;;;;2.27;1.37;;;;;;;;;;765420;180;1096367;-66
2021/08/07 10:23:29;;;;;;;2.97;1.67;;;;;;;;;;769318;180;923820;-66
2021/08/07 10:25:55;;;;;;;2.53;1.63;;;;;;;;;;778737;179;915938;-66
2021/08/07 10:28:21;;;;;;;3.03;1.70;;;;;;;;;;770688;179;920460;-66
2021/08/07 10:30:47;;;;;;;3.60;1.60;;;;;;;;;;770017;180;923498;-65
2021/08/07 10:33:13;;;;;;;3.60;1.80;;;;;;;;;;773103;180;915066;-66
2021/08/07 10:35:39;;;;;;;2.93;1.90;;;;;;;;;;770923;180;920018;-65
2021/08/07 10:38:04;;;;;;;3.63;1.50;;;;;;;;;;767237;180;919641;-66
2021/08/07 10:40:30;;;;;;;3.33;1.63;;;;;;;;;;769267;180;919067;-66
2021/08/07 10:42:56;;;;;;;4.53;2.13;;;;;;;;;;769540;180;919777;-67
2021/08/07 10:45:22;;;;;;;3.00;1.63;;;;;;;;;;760555;181;921511;-65
2021/08/07 10:47:48;;;;;;;4.68;1.85;;;;;;;;;;766337;180;918763;-66
2021/08/07 10:50:19;;;;;;;4.20;1.90;;;;;;;;;;776487;180;918251;-66
2021/08/07 10:52:45;;;;;;;6.10;2.10;;;;;;;;;;772711;179;919866;-67
2021/08/07 10:55:11;;;;;;;4.40;2.28;;;;;;;;;;768832;180;919267;-66
2021/08/07 10:57:37;;;;;;;3.45;1.75;;;;;;;;;;770013;180;920354;-65
2021/08/07 11:00:09;;;;;;;4.07;2.00;;;;;;;;;;771338;180;918604;-65
2021/08/07 11:02:35;;;;;;;2.87;1.70;;;;;;;;;;764961;180;919723;-66
2021/08/07 11:05:01;;;;;;;2.60;1.60;;;;;;;;;;767368;180;920267;-66
2021/08/07 11:07:28;;;;;;;7.70;2.10;;;;;;;;;;771428;180;920347;-66
2021/08/07 11:09:58;;;;;;;3.10;1.63;;;;;;;;;;767284;180;919491;-67
2021/08/07 11:12:24;;;;;;;3.47;2.10;;;;;;;;;;771200;180;916092;-68
2021/08/07 11:14:53;;;;;;;3.47;2.03;;;;;;;;;;771894;180;912652;-66
2021/08/07 11:17:26;;;;;;;4.20;1.70;;;;;;;;;;776602;180;904497;-66
2021/08/07 11:19:59;;;;;;;9.37;2.20;;;;;;;;;;772278;180;656053;-68
2021/08/07 11:22:27;;;;;;;2.97;1.90;;;;;;;;;;767542;180;915907;-65
2021/08/07 11:24:53;;;;;;;5.53;2.03;;;;;;;;;;771166;180;922208;-65
2021/08/07 11:27:19;;;;;;;2.93;1.73;;;;;;;;;;771657;180;919961;-66
2021/08/07 11:29:51;;;;;;;3.42;2.08;;;;;;;;;;768070;179;919482;-64
2021/08/07 11:32:17;;;;;;;4.50;2.20;;;;;;;;;;769192;180;920179;-65
2021/08/07 11:34:49;;;;;;;3.10;1.85;;;;;;;;;;768146;180;918141;-64
2021/08/07 11:37:15;;;;;;;5.33;1.77;;;;;;;;;;775397;180;918207;-65
2021/08/07 11:39:47;;;;;;;3.80;1.80;;;;;;;;;;765489;181;919181;-66
2021/08/07 11:42:18;;;;;;;4.33;2.30;;;;;;;;;;766456;181;920559;-64
2021/08/07 11:44:44;;;;;;;3.20;2.10;;;;;;;;;;770376;180;920018;-64
2021/08/07 11:47:10;;;;;;;5.07;2.17;;;;;;;;;;773308;179;919688;-64
2021/08/07 11:49:36;;;;;;;9.73;2.27;;;;;;;;;;766254;180;918984;-66
2021/08/07 11:52:02;;;;;;;7.80;1.80;;;;;;;;;;770585;180;919222;-66
2021/08/07 11:54:28;;;;;;;3.53;2.17;;;;;;;;;;768404;180;920780;-63
2021/08/07 11:56:54;;;;;;;4.30;2.03;;;;;;;;;;764628;183;915815;-64
2021/08/07 11:59:28;;;;;;;2.93;1.80;;;;;;;;;;766484;180;919113;-65
2021/08/07 12:01:46;;;;;;;3.70;2.20;;;;;;;;;;767644;179;919047;-65
2021/08/07 12:04:12;;;;;;;3.80;2.10;;;;;;;;;;767044;180;2235954;-65
2021/08/07 12:06:38;;;;;;;5.47;2.20;;;;;;;;;;773508;180;919395;-64
2021/08/07 12:09:08;;;;;;;4.43;2.10;;;;;;;;;;769814;180;1022263;-66
2021/08/07 12:11:33;;;;;;;2.72;1.62;;;;;;;;;;770047;180;924077;-64
2021/08/07 12:13:59;;;;;;;5.73;2.23;;;;;;;;;;774609;179;918741;-64
2021/08/07 12:16:28;;;;;;;5.13;2.00;;;;;;;;;;763673;181;919493;-64
2021/08/07 12:18:55;;;;;;;3.43;1.90;;;;;;;;;;762319;180;919244;-64
2021/08/07 12:21:32;;;;;;;4.67;2.27;;;;;;;;;;770802;180;919884;-65
2021/08/07 12:23:58;;;;;;;3.40;2.27;;;;;;;;;;770296;180;916240;-64
2021/08/07 12:26:24;;;;;;;5.90;2.40;;;;;;;;;;770452;180;915427;-65
2021/08/07 12:28:54;;;;;;;4.57;2.00;;;;;;;;;;769100;180;916536;-64
2021/08/07 12:31:20;;;;;;;7.20;2.23;;;;;;;;;;772447;180;1018122;-65
2021/08/07 12:33:46;;;;;;;3.00;1.97;;;;;;;;;;770323;180;919778;-64
2021/08/07 12:36:12;;;;;;;8.10;3.07;;;;;;;;;;770344;177;918593;-65
2021/08/07 12:38:46;;;;;;;2.93;1.70;;;;;;;;;;770098;180;920636;-64
2021/08/07 12:41:12;;;;;;;4.57;2.13;;;;;;;;;;770558;180;920026;-63
2021/08/07 12:43:37;;;;;;;3.60;1.97;;;;;;;;;;768861;181;923130;-65
2021/08/07 12:46:03;;;;;;;5.30;2.10;;;;;;;;;;771257;180;920072;-64
2021/08/07 12:48:35;;;;;;;2.57;1.93;;;;;;;;;;771444;179;919138;-65
2021/08/07 12:51:01;;;;;;;2.90;2.10;;;;;;;;;;769686;181;919480;-63
2021/08/07 12:53:33;;;;;;;3.77;2.03;;;;;;;;;;762233;181;918368;-65
2021/08/07 12:55:58;;;;;;;3.40;2.07;;;;;;;;;;762879;180;918438;-64
2021/08/07 12:58:24;;;;;;;5.53;2.27;;;;;;;;;;771269;180;919992;-65
2021/08/07 13:00:50;;;;;;;2.83;1.93;;;;;;;;;;766881;180;917765;-64
2021/08/07 13:03:16;;;;;;;4.20;2.20;;;;;;;;;;770666;180;919417;-64
2021/08/07 13:05:42;;;;;;;4.20;2.20;;;;;;;;;;770415;181;919945;-63
2021/08/07 13:08:23;;;;;;;8.30;3.10;;;;;;;;;;770932;180;919265;-64
2021/08/07 13:10:48;;;;;;;3.40;2.20;;;;;;;;;;768629;180;919942;-64
2021/08/07 13:13:14;;;;;;;5.33;2.37;;;;;;;;;;762971;180;919172;-65
2021/08/07 13:15:40;;;;;;;6.97;2.20;;;;;;;;;;769808;179;955528;-66
2021/08/07 13:18:06;;;;;;;4.20;2.40;;;;;;;;;;773938;180;938905;-64
2021/08/07 13:20:34;;;;;;;4.03;2.40;;;;;;;;;;770595;180;919748;-64
2021/08/07 13:22:59;;;;;;;9.23;2.63;;;;;;;;;;771037;180;918932;-64
2021/08/07 13:25:25;;;;;;;3.60;2.30;;;;;;;;;;775080;180;918408;-64
2021/08/07 13:27:51;;;;;;;3.50;2.20;;;;;;;;;;771313;180;919411;-64
2021/08/07 13:30:17;;;;;;;3.80;2.77;;;;;;;;;;771407;179;924295;-63
2021/08/07 13:32:43;;;;;;;4.70;1.80;;;;;;;;;;764178;179;919524;-63
2021/08/07 13:35:09;;;;;;;4.37;2.70;;;;;;;;;;774168;180;919653;-64
2021/08/07 13:37:35;;;;;;;4.18;2.17;;;;;;;;;;763709;180;920458;-64
2021/08/07 13:40:01;;;;;;;2.90;2.20;;;;;;;;;;770738;180;932818;-63
2021/08/07 13:42:27;;;;;;;6.90;2.97;;;;;;;;;;772992;180;917943;-65
2021/08/07 13:44:53;;;;;;;2.73;2.00;;;;;;;;;;768570;180;924542;-65
2021/08/07 13:47:19;;;;;;;3.63;2.67;;;;;;;;;;766011;180;915764;-63
2021/08/07 13:49:44;;;;;;;6.12;2.53;;;;;;;;;;775748;180;920459;-62
2021/08/07 13:52:10;;;;;;;3.97;2.30;;;;;;;;;;771027;180;919173;-63
2021/08/07 13:54:36;;;;;;;4.65;2.40;;;;;;;;;;769399;179;1206085;-63
2021/08/07 13:57:06;;;;;;;8.10;2.70;;;;;;;;;;768059;179;919079;-61
2021/08/07 13:59:28;;;;;;;4.05;2.30;;;;;;;;;;773354;180;922546;-61
2021/08/07 14:01:54;;;;;;;3.63;2.80;;;;;;;;;;771711;179;630176;-63
2021/08/07 14:04:20;;;;;;;4.40;2.10;;;;;;;;;;766978;180;918744;-63
2021/08/07 14:06:46;;;;;;;3.63;2.13;;;;;;;;;;773210;180;919643;-63
2021/08/07 14:09:12;;;;;;;2.90;2.10;;;;;;;;;;767275;180;919510;-63
2021/08/07 14:11:37;;;;;;;4.30;2.70;;;;;;;;;;767848;180;919547;-63
2021/08/07 14:14:03;;;;;;;5.03;2.60;;;;;;;;;;777719;180;625789;-62
2021/08/07 14:16:29;;;;;;;5.60;2.63;;;;;;;;;;768537;180;919743;-64
2021/08/07 14:18:55;;;;;;;7.00;2.73;;;;;;;;;;763850;180;919679;-63
2021/08/07 14:21:21;;;;;;;4.40;2.07;;;;;;;;;;774920;180;919901;-61